Bf Philipp — CQHJ — position and weather

sailwx.info

Track history (hours):
 
Tides and Currents Weather Stations Pressure Air Temp Water Temp Dewpoint Dewpoint Depression Visibility Wind Speed Wind Dir Waves Ship Positions

Bf Philipp

Last reported at 2017-Sep-20 23:05 UTC. Time now 2017-Sep-23 04:10 UTC.
Position N 39°38' E 024°06'.

Length 117 m; draft 5.9 m.

Type: Ship (hazmat cat A). MMSI: 255805585.

Date/timePositionNaut miles runAvg speedWind from/ knotsBaromVisibWave heightAir tempDewpointWater temp
2017-Sep-20 23:05N 39°38' E 024°06'1 9.8
2017-Sep-20 23:00N 39°38' E 024°07'5 9.5
2017-Sep-20 22:30N 39°36' E 024°12'2610.0
2017-Sep-20 19:53N 39°15' E 024°33'411.4
2017-Sep-20 19:31N 39°11' E 024°35'711.8
2017-Sep-20 18:55N 39°05' E 024°39'95 9.9
2017-Sep-20 09:20N 37°36' E 023°57'411.7
2017-Sep-20 08:58N 37°36' E 023°52'511.2
2017-Sep-20 08:29N 37°37' E 023°45'611.7
2017-Sep-20 08:01N 37°42' E 023°41'611.9
2017-Sep-20 07:30N 37°47' E 023°38'611.7
2017-Sep-20 07:01N 37°53' E 023°36'5 8.6
2017-Sep-20 06:29N 37°57' E 023°35'0 0.7
2017-Sep-20 05:59N 37°57' E 023°35'0 0.0
2017-Sep-20 05:29N 37°57' E 023°35'0 0.0
2017-Sep-20 04:59N 37°57' E 023°35'0 0.0
2017-Sep-20 04:28N 37°57' E 023°35'0 0.0
2017-Sep-20 03:59N 37°57' E 023°35'0 0.0
2017-Sep-20 03:29N 37°57' E 023°35'0 0.0
2017-Sep-20 02:59N 37°57' E 023°35'0 0.0
2017-Sep-20 02:28N 37°57' E 023°35'0 0.0
2017-Sep-20 01:59N 37°57' E 023°35'0 0.0
2017-Sep-20 01:29N 37°57' E 023°35'0 0.0
2017-Sep-20 00:58N 37°57' E 023°35'0 0.0
2017-Sep-20 00:29N 37°57' E 023°35'0 0.0
2017-Sep-19 23:59N 37°57' E 023°35'0 0.0
2017-Sep-19 23:29N 37°57' E 023°35'0 0.0
2017-Sep-19 22:59N 37°57' E 023°35'0 0.0
2017-Sep-19 22:28N 37°57' E 023°35'0 0.0
2017-Sep-19 21:59N 37°57' E 023°35'0 0.0
2017-Sep-19 21:29N 37°57' E 023°35'0 0.0
2017-Sep-19 21:00N 37°57' E 023°35'0 0.0
2017-Sep-19 20:28N 37°57' E 023°35'0 0.0
2017-Sep-19 19:58N 37°57' E 023°35'0 0.0
2017-Sep-19 19:28N 37°57' E 023°35'0 0.0
2017-Sep-19 18:58N 37°57' E 023°35'0 0.0
2017-Sep-19 18:28N 37°57' E 023°35'0 0.0
2017-Sep-19 17:58N 37°57' E 023°35'0 0.0
2017-Sep-19 17:28N 37°57' E 023°35'0 0.0
2017-Sep-19 16:58N 37°57' E 023°35'0 0.0
2017-Sep-19 16:31N 37°57' E 023°35'2 3.4
2017-Sep-19 16:00N 37°56' E 023°35'2 3.9
2017-Sep-19 15:30N 37°54' E 023°36'4 8.9
2017-Sep-19 15:00N 37°50' E 023°39'5 9.8
2017-Sep-19 14:30N 37°46' E 023°42'5 9.6
2017-Sep-19 14:00N 37°41' E 023°44'510.5
2017-Sep-19 13:30N 37°36' E 023°44'611.0
2017-Sep-19 13:00N 37°31' E 023°43'611.5
2017-Sep-19 12:30N 37°25' E 023°41'611.4
2017-Sep-19 12:00N 37°20' E 023°37'611.3
2017-Sep-19 11:30N 37°15' E 023°34'611.3
2017-Sep-19 11:00N 37°10' E 023°31'611.0
2017-Sep-19 10:30N 37°04' E 023°29'510.7
2017-Sep-19 10:00N 36°60' E 023°26'511.0
2017-Sep-19 09:30N 36°55' E 023°24'611.1
2017-Sep-19 09:00N 36°49' E 023°22'611.4
2017-Sep-19 08:29N 36°43' E 023°21'611.5
2017-Sep-19 08:00N 36°38' E 023°21'611.4
2017-Sep-19 07:30N 36°32' E 023°20'611.4
2017-Sep-19 06:59N 36°26' E 023°18'510.5
2017-Sep-19 06:29N 36°22' E 023°14'12710.8
2017-Sep-18 18:44N 37°25' E 020°55'311.7
2017-Sep-18 18:28N 37°28' E 020°53'2511.7
2017-Sep-18 16:19N 37°48' E 020°33'412.1
2017-Sep-18 16:00N 37°51' E 020°30'14811.3
2017-Sep-18 02:58N 39°58' E 018°55'812.0
2017-Sep-18 02:17N 40°05' E 018°48'3811.9
2017-Sep-17 23:06N 40°36' E 018°21'77 4.8
2017-Sep-17 07:07N 41°10' E 016°50'0 1.0
2017-Sep-17 06:51N 41°10' E 016°50'1 0.9
2017-Sep-17 05:36N 41°11' E 016°52'25 7.3
2017-Sep-17 02:11N 41°02' E 017°23'210.1
2017-Sep-17 01:59N 41°01' E 017°25'510.3
2017-Sep-17 01:30N 40°59' E 017°31'510.3
2017-Sep-17 00:59N 40°57' E 017°38'510.2
2017-Sep-17 00:30N 40°55' E 017°44'510.2
2017-Sep-17 00:00N 40°53' E 017°50'510.4
2017-Sep-16 23:30N 40°50' E 017°56'510.4
2017-Sep-16 23:00N 40°48' E 018°02'510.4
2017-Sep-16 22:30N 40°46' E 018°08'510.3
2017-Sep-16 22:00N 40°42' E 018°13'510.2
2017-Sep-16 21:30N 40°39' E 018°18'5 9.9
2017-Sep-16 21:00N 40°35' E 018°22'510.1
2017-Sep-16 20:30N 40°31' E 018°26'510.3
2017-Sep-16 20:00N 40°27' E 018°31'510.3
2017-Sep-16 19:30N 40°24' E 018°36'510.3
2017-Sep-16 19:00N 40°20' E 018°41'5 9.9
2017-Sep-16 18:29N 40°16' E 018°44'610.5
2017-Sep-16 17:55N 40°11' E 018°49'410.4
2017-Sep-16 17:30N 40°08' E 018°52'510.4
2017-Sep-16 17:00N 40°03' E 018°56'510.9
2017-Sep-16 16:31N 39°59' E 018°59'510.8
2017-Sep-16 16:00N 39°54' E 019°02'611.2
2017-Sep-16 15:30N 39°49' E 019°06'611.2
2017-Sep-16 15:00N 39°44' E 019°10'611.1
2017-Sep-16 14:31N 39°39' E 019°13'611.2
2017-Sep-16 14:00N 39°34' E 019°16'611.3
2017-Sep-16 13:31N 39°29' E 019°20'510.7
2017-Sep-16 13:01N 39°24' E 019°23'910.2
2017-Sep-16 12:07N 39°17' E 019°29'110.0
2017-Sep-16 11:59N 39°16' E 019°30'510.4
2017-Sep-16 11:29N 39°11' E 019°33'11611.7
2017-Sep-16 01:34N 37°31' E 020°49'111.6
2017-Sep-16 01:28N 37°31' E 020°50'711.4
2017-Sep-16 00:50N 37°25' E 020°55'611.3
2017-Sep-16 00:19N 37°20' E 021°00'311.4
2017-Sep-16 00:00N 37°18' E 021°03'611.6
2017-Sep-15 23:30N 37°13' E 021°07'11110.4
2017-Sep-15 12:53N 36°25' E 023°12'411.5
2017-Sep-15 12:30N 36°28' E 023°16'612.4
2017-Sep-15 12:00N 36°33' E 023°20'3112.4
2017-Sep-15 09:29N 37°02' E 023°35'611.5
2017-Sep-15 09:00N 37°08' E 023°36'611.7
2017-Sep-15 08:30N 37°13' E 023°37'612.0
2017-Sep-15 07:59N 37°20' E 023°38'611.7
2017-Sep-15 07:30N 37°25' E 023°40'712.0
2017-Sep-15 06:57N 37°32' E 023°41'512.0
2017-Sep-15 06:30N 37°37' E 023°42'611.9
2017-Sep-15 06:00N 37°43' E 023°40'612.1
2017-Sep-15 05:30N 37°48' E 023°37'611.7
2017-Sep-15 05:00N 37°54' E 023°37'3 5.8
2017-Sep-15 04:28N 37°57' E 023°36'0 0.0
2017-Sep-15 03:55N 37°57' E 023°36'0 0.0
2017-Sep-15 03:28N 37°57' E 023°36'0 0.0
2017-Sep-15 02:58N 37°57' E 023°36'0 0.0
2017-Sep-15 02:28N 37°57' E 023°36'0 0.0
2017-Sep-15 01:58N 37°57' E 023°36'0 0.0
2017-Sep-15 01:28N 37°57' E 023°36'0 0.0
2017-Sep-15 00:58N 37°57' E 023°36'0 0.0
2017-Sep-15 00:28N 37°57' E 023°36'0 0.0
2017-Sep-14 23:58N 37°57' E 023°36'0 0.0
2017-Sep-14 23:28N 37°57' E 023°36'0 0.0
2017-Sep-14 22:55N 37°57' E 023°36'0 0.0
2017-Sep-14 22:28N 37°57' E 023°36'0 0.0
2017-Sep-14 21:58N 37°57' E 023°36'0 0.0
2017-Sep-14 21:28N 37°57' E 023°36'0 0.0
2017-Sep-14 21:00N 37°57' E 023°36'0 0.0
2017-Sep-14 20:30N 37°57' E 023°36'0 0.0
2017-Sep-14 20:00N 37°57' E 023°36'0 0.0
2017-Sep-14 19:30N 37°57' E 023°36'0 0.0
2017-Sep-14 19:00N 37°57' E 023°36'0 0.0
2017-Sep-14 18:30N 37°57' E 023°36'0 0.0
2017-Sep-14 18:00N 37°57' E 023°36'0 0.0
2017-Sep-14 17:30N 37°57' E 023°36'0 0.0
2017-Sep-14 17:00N 37°57' E 023°36'0 0.0
2017-Sep-14 16:30N 37°57' E 023°36'0 0.0
2017-Sep-14 16:00N 37°57' E 023°36'0 0.0
2017-Sep-14 15:27N 37°57' E 023°36'0 0.0
2017-Sep-14 15:00N 37°57' E 023°36'0 0.0
2017-Sep-14 14:30N 37°57' E 023°36'0 0.0
2017-Sep-14 14:00N 37°57' E 023°36'0 0.0
2017-Sep-14 13:27N 37°57' E 023°36'0 0.0
2017-Sep-14 13:00N 37°57' E 023°36'0 0.0
2017-Sep-14 12:30N 37°57' E 023°36'0 0.0
2017-Sep-14 12:00N 37°57' E 023°36'0 0.0
2017-Sep-14 11:30N 37°57' E 023°36'0 0.0
2017-Sep-14 11:00N 37°57' E 023°36'0 0.0
2017-Sep-14 10:30N 37°57' E 023°36'0 0.0
2017-Sep-14 10:00N 37°57' E 023°36'1 2.9
2017-Sep-14 09:30N 37°56' E 023°36'1 1.9
2017-Sep-14 09:00N 37°55' E 023°36'3 5.2
2017-Sep-14 08:30N 37°53' E 023°33'0 0.9
2017-Sep-14 07:59N 37°53' E 023°33'0 0.0
2017-Sep-14 07:30N 37°53' E 023°33'0 0.1
2017-Sep-14 06:59N 37°53' E 023°33'0 0.0
2017-Sep-14 06:29N 37°53' E 023°33'0 0.0
2017-Sep-14 05:56N 37°53' E 023°33'0 0.1
2017-Sep-14 05:30N 37°53' E 023°33'1 1.3
2017-Sep-14 05:00N 37°53' E 023°33'4 8.2
2017-Sep-14 04:30N 37°51' E 023°38'510.1
2017-Sep-14 04:00N 37°47' E 023°41'5 9.7
2017-Sep-14 03:30N 37°42' E 023°44'5 9.6
2017-Sep-14 03:00N 37°39' E 023°48'5 9.9
2017-Sep-14 02:28N 37°38' E 023°55'118 8.9
2017-Sep-13 13:11N 39°35' E 024°15'211.2
2017-Sep-13 13:00N 39°36' E 024°13'611.4
2017-Sep-13 12:30N 39°38' E 024°06'611.2
2017-Sep-13 12:00N 39°40' E 023°59'1510.8
2017-Sep-13 10:38N 39°46' E 023°42'210.7
2017-Sep-13 10:26N 39°47' E 023°39'  
Track history (hours):
 
Tides and Currents Weather Stations Pressure Air Temp Water Temp Dewpoint Dewpoint Depression Visibility Wind Speed Wind Dir Waves Ship Positions

Bf Philipp

Last reported at 2017-Sep-20 23:05 UTC. Time now 2017-Sep-23 04:10 UTC.
Position N 39°38' E 024°06'.

Length 117 m; draft 5.9 m.

Type: Ship (hazmat cat A). MMSI: 255805585.

Date/timePositionNaut miles runAvg speedWind from/ knotsBaromVisibWave heightAir tempDewpointWater temp
2017-Sep-20 23:05N 39°38' E 024°06'1 9.8
2017-Sep-20 23:00N 39°38' E 024°07'5 9.5
2017-Sep-20 22:30N 39°36' E 024°12'2610.0
2017-Sep-20 19:53N 39°15' E 024°33'411.4
2017-Sep-20 19:31N 39°11' E 024°35'711.8
2017-Sep-20 18:55N 39°05' E 024°39'95 9.9
2017-Sep-20 09:20N 37°36' E 023°57'411.7
2017-Sep-20 08:58N 37°36' E 023°52'511.2
2017-Sep-20 08:29N 37°37' E 023°45'611.7
2017-Sep-20 08:01N 37°42' E 023°41'611.9
2017-Sep-20 07:30N 37°47' E 023°38'611.7
2017-Sep-20 07:01N 37°53' E 023°36'5 8.6
2017-Sep-20 06:29N 37°57' E 023°35'0 0.7
2017-Sep-20 05:59N 37°57' E 023°35'0 0.0
2017-Sep-20 05:29N 37°57' E 023°35'0 0.0
2017-Sep-20 04:59N 37°57' E 023°35'0 0.0
2017-Sep-20 04:28N 37°57' E 023°35'0 0.0
2017-Sep-20 03:59N 37°57' E 023°35'0 0.0
2017-Sep-20 03:29N 37°57' E 023°35'0 0.0
2017-Sep-20 02:59N 37°57' E 023°35'0 0.0
2017-Sep-20 02:28N 37°57' E 023°35'0 0.0
2017-Sep-20 01:59N 37°57' E 023°35'0 0.0
2017-Sep-20 01:29N 37°57' E 023°35'0 0.0
2017-Sep-20 00:58N 37°57' E 023°35'0 0.0
2017-Sep-20 00:29N 37°57' E 023°35'0 0.0
2017-Sep-19 23:59N 37°57' E 023°35'0 0.0
2017-Sep-19 23:29N 37°57' E 023°35'0 0.0
2017-Sep-19 22:59N 37°57' E 023°35'0 0.0
2017-Sep-19 22:28N 37°57' E 023°35'0 0.0
2017-Sep-19 21:59N 37°57' E 023°35'0 0.0
2017-Sep-19 21:29N 37°57' E 023°35'0 0.0
2017-Sep-19 21:00N 37°57' E 023°35'0 0.0
2017-Sep-19 20:28N 37°57' E 023°35'0 0.0
2017-Sep-19 19:58N 37°57' E 023°35'0 0.0
2017-Sep-19 19:28N 37°57' E 023°35'0 0.0
2017-Sep-19 18:58N 37°57' E 023°35'0 0.0
2017-Sep-19 18:28N 37°57' E 023°35'0 0.0
2017-Sep-19 17:58N 37°57' E 023°35'0 0.0
2017-Sep-19 17:28N 37°57' E 023°35'0 0.0
2017-Sep-19 16:58N 37°57' E 023°35'0 0.0
2017-Sep-19 16:31N 37°57' E 023°35'2 3.4
2017-Sep-19 16:00N 37°56' E 023°35'2 3.9
2017-Sep-19 15:30N 37°54' E 023°36'4 8.9
2017-Sep-19 15:00N 37°50' E 023°39'5 9.8
2017-Sep-19 14:30N 37°46' E 023°42'5 9.6
2017-Sep-19 14:00N 37°41' E 023°44'510.5
2017-Sep-19 13:30N 37°36' E 023°44'611.0
2017-Sep-19 13:00N 37°31' E 023°43'611.5
2017-Sep-19 12:30N 37°25' E 023°41'611.4
2017-Sep-19 12:00N 37°20' E 023°37'611.3
2017-Sep-19 11:30N 37°15' E 023°34'611.3
2017-Sep-19 11:00N 37°10' E 023°31'611.0
2017-Sep-19 10:30N 37°04' E 023°29'510.7
2017-Sep-19 10:00N 36°60' E 023°26'511.0
2017-Sep-19 09:30N 36°55' E 023°24'611.1
2017-Sep-19 09:00N 36°49' E 023°22'611.4
2017-Sep-19 08:29N 36°43' E 023°21'611.5
2017-Sep-19 08:00N 36°38' E 023°21'611.4
2017-Sep-19 07:30N 36°32' E 023°20'611.4
2017-Sep-19 06:59N 36°26' E 023°18'510.5
2017-Sep-19 06:29N 36°22' E 023°14'12710.8
2017-Sep-18 18:44N 37°25' E 020°55'311.7
2017-Sep-18 18:28N 37°28' E 020°53'2511.7
2017-Sep-18 16:19N 37°48' E 020°33'412.1
2017-Sep-18 16:00N 37°51' E 020°30'14811.3
2017-Sep-18 02:58N 39°58' E 018°55'812.0
2017-Sep-18 02:17N 40°05' E 018°48'3811.9
2017-Sep-17 23:06N 40°36' E 018°21'77 4.8
2017-Sep-17 07:07N 41°10' E 016°50'0 1.0
2017-Sep-17 06:51N 41°10' E 016°50'1 0.9
2017-Sep-17 05:36N 41°11' E 016°52'25 7.3
2017-Sep-17 02:11N 41°02' E 017°23'210.1
2017-Sep-17 01:59N 41°01' E 017°25'510.3
2017-Sep-17 01:30N 40°59' E 017°31'510.3
2017-Sep-17 00:59N 40°57' E 017°38'510.2
2017-Sep-17 00:30N 40°55' E 017°44'510.2
2017-Sep-17 00:00N 40°53' E 017°50'510.4
2017-Sep-16 23:30N 40°50' E 017°56'510.4
2017-Sep-16 23:00N 40°48' E 018°02'510.4
2017-Sep-16 22:30N 40°46' E 018°08'510.3
2017-Sep-16 22:00N 40°42' E 018°13'510.2
2017-Sep-16 21:30N 40°39' E 018°18'5 9.9
2017-Sep-16 21:00N 40°35' E 018°22'510.1
2017-Sep-16 20:30N 40°31' E 018°26'510.3
2017-Sep-16 20:00N 40°27' E 018°31'510.3
2017-Sep-16 19:30N 40°24' E 018°36'510.3
2017-Sep-16 19:00N 40°20' E 018°41'5 9.9
2017-Sep-16 18:29N 40°16' E 018°44'610.5
2017-Sep-16 17:55N 40°11' E 018°49'410.4
2017-Sep-16 17:30N 40°08' E 018°52'510.4
2017-Sep-16 17:00N 40°03' E 018°56'510.9
2017-Sep-16 16:31N 39°59' E 018°59'510.8
2017-Sep-16 16:00N 39°54' E 019°02'611.2
2017-Sep-16 15:30N 39°49' E 019°06'611.2
2017-Sep-16 15:00N 39°44' E 019°10'611.1
2017-Sep-16 14:31N 39°39' E 019°13'611.2
2017-Sep-16 14:00N 39°34' E 019°16'611.3
2017-Sep-16 13:31N 39°29' E 019°20'510.7
2017-Sep-16 13:01N 39°24' E 019°23'910.2
2017-Sep-16 12:07N 39°17' E 019°29'110.0
2017-Sep-16 11:59N 39°16' E 019°30'510.4
2017-Sep-16 11:29N 39°11' E 019°33'11611.7
2017-Sep-16 01:34N 37°31' E 020°49'111.6
2017-Sep-16 01:28N 37°31' E 020°50'711.4
2017-Sep-16 00:50N 37°25' E 020°55'611.3
2017-Sep-16 00:19N 37°20' E 021°00'311.4
2017-Sep-16 00:00N 37°18' E 021°03'611.6
2017-Sep-15 23:30N 37°13' E 021°07'11110.4
2017-Sep-15 12:53N 36°25' E 023°12'411.5
2017-Sep-15 12:30N 36°28' E 023°16'612.4
2017-Sep-15 12:00N 36°33' E 023°20'3112.4
2017-Sep-15 09:29N 37°02' E 023°35'611.5
2017-Sep-15 09:00N 37°08' E 023°36'611.7
2017-Sep-15 08:30N 37°13' E 023°37'612.0
2017-Sep-15 07:59N 37°20' E 023°38'611.7
2017-Sep-15 07:30N 37°25' E 023°40'712.0
2017-Sep-15 06:57N 37°32' E 023°41'512.0
2017-Sep-15 06:30N 37°37' E 023°42'611.9
2017-Sep-15 06:00N 37°43' E 023°40'612.1
2017-Sep-15 05:30N 37°48' E 023°37'611.7
2017-Sep-15 05:00N 37°54' E 023°37'3 5.8
2017-Sep-15 04:28N 37°57' E 023°36'0 0.0
2017-Sep-15 03:55N 37°57' E 023°36'0 0.0
2017-Sep-15 03:28N 37°57' E 023°36'0 0.0
2017-Sep-15 02:58N 37°57' E 023°36'0 0.0
2017-Sep-15 02:28N 37°57' E 023°36'0 0.0
2017-Sep-15 01:58N 37°57' E 023°36'0 0.0
2017-Sep-15 01:28N 37°57' E 023°36'0 0.0
2017-Sep-15 00:58N 37°57' E 023°36'0 0.0
2017-Sep-15 00:28N 37°57' E 023°36'0 0.0
2017-Sep-14 23:58N 37°57' E 023°36'0 0.0
2017-Sep-14 23:28N 37°57' E 023°36'0 0.0
2017-Sep-14 22:55N 37°57' E 023°36'0 0.0
2017-Sep-14 22:28N 37°57' E 023°36'0 0.0
2017-Sep-14 21:58N 37°57' E 023°36'0 0.0
2017-Sep-14 21:28N 37°57' E 023°36'0 0.0
2017-Sep-14 21:00N 37°57' E 023°36'0 0.0
2017-Sep-14 20:30N 37°57' E 023°36'0 0.0
2017-Sep-14 20:00N 37°57' E 023°36'0 0.0
2017-Sep-14 19:30N 37°57' E 023°36'0 0.0
2017-Sep-14 19:00N 37°57' E 023°36'0 0.0
2017-Sep-14 18:30N 37°57' E 023°36'0 0.0
2017-Sep-14 18:00N 37°57' E 023°36'0 0.0
2017-Sep-14 17:30N 37°57' E 023°36'0 0.0
2017-Sep-14 17:00N 37°57' E 023°36'0 0.0
2017-Sep-14 16:30N 37°57' E 023°36'0 0.0
2017-Sep-14 16:00N 37°57' E 023°36'0 0.0
2017-Sep-14 15:27N 37°57' E 023°36'0 0.0
2017-Sep-14 15:00N 37°57' E 023°36'0 0.0
2017-Sep-14 14:30N 37°57' E 023°36'0 0.0
2017-Sep-14 14:00N 37°57' E 023°36'0 0.0
2017-Sep-14 13:27N 37°57' E 023°36'0 0.0
2017-Sep-14 13:00N 37°57' E 023°36'0 0.0
2017-Sep-14 12:30N 37°57' E 023°36'0 0.0
2017-Sep-14 12:00N 37°57' E 023°36'0 0.0
2017-Sep-14 11:30N 37°57' E 023°36'0 0.0
2017-Sep-14 11:00N 37°57' E 023°36'0 0.0
2017-Sep-14 10:30N 37°57' E 023°36'0 0.0
2017-Sep-14 10:00N 37°57' E 023°36'1 2.9
2017-Sep-14 09:30N 37°56' E 023°36'1 1.9
2017-Sep-14 09:00N 37°55' E 023°36'3 5.2
2017-Sep-14 08:30N 37°53' E 023°33'0 0.9
2017-Sep-14 07:59N 37°53' E 023°33'0 0.0
2017-Sep-14 07:30N 37°53' E 023°33'0 0.1
2017-Sep-14 06:59N 37°53' E 023°33'0 0.0
2017-Sep-14 06:29N 37°53' E 023°33'0 0.0
2017-Sep-14 05:56N 37°53' E 023°33'0 0.1
2017-Sep-14 05:30N 37°53' E 023°33'1 1.3
2017-Sep-14 05:00N 37°53' E 023°33'4 8.2
2017-Sep-14 04:30N 37°51' E 023°38'510.1
2017-Sep-14 04:00N 37°47' E 023°41'5 9.7
2017-Sep-14 03:30N 37°42' E 023°44'5 9.6
2017-Sep-14 03:00N 37°39' E 023°48'5 9.9
2017-Sep-14 02:28N 37°38' E 023°55'118 8.9
2017-Sep-13 13:11N 39°35' E 024°15'211.2
2017-Sep-13 13:00N 39°36' E 024°13'611.4
2017-Sep-13 12:30N 39°38' E 024°06'611.2
2017-Sep-13 12:00N 39°40' E 023°59'1510.8
2017-Sep-13 10:38N 39°46' E 023°42'210.7
2017-Sep-13 10:26N 39°47' E 023°39'  

Dump ship's entire track history